createdAt,value
2018-08-03T00:00:12.265Z,64.66
2018-08-03T00:02:39.486Z,65.24
2018-08-03T00:05:07.234Z,66.40
2018-08-03T00:07:35.030Z,68.53
2018-08-03T00:10:02.901Z,66.17
2018-08-03T00:12:31.155Z,65.58
2018-08-03T00:14:59.227Z,66.07
2018-08-03T00:17:27.674Z,66.92
2018-08-03T00:19:54.976Z,67.37
2018-08-03T00:22:22.187Z,66.58
2018-08-03T00:24:49.368Z,62.81
2018-08-03T00:27:16.600Z,65.67
2018-08-03T00:29:43.787Z,64.50
2018-08-03T00:32:10.932Z,65.88
2018-08-03T00:34:38.228Z,67.16
2018-08-03T00:37:05.730Z,65.06
2018-08-03T00:39:33.466Z,62.92
2018-08-03T00:42:01.016Z,64.24
2018-08-03T00:44:29.243Z,66.31
2018-08-03T00:46:57.170Z,66.90
2018-08-03T00:49:25.416Z,67.02
2018-08-03T00:51:52.607Z,64.24
2018-08-03T00:54:19.720Z,66.53
2018-08-03T00:56:46.968Z,66.59
2018-08-03T00:59:14.081Z,67.62
2018-08-03T01:01:41.189Z,68.15
2018-08-03T01:04:08.542Z,67.75
2018-08-03T01:06:36.391Z,68.78
2018-08-03T01:09:07.923Z,67.67
2018-08-03T01:11:35.936Z,65.69
2018-08-03T01:14:03.460Z,66.54
2018-08-03T01:16:34.546Z,68.91
2018-08-03T01:19:02.047Z,66.99
2018-08-03T01:21:30.031Z,66.36
2018-08-03T01:23:58.574Z,68.65
2018-08-03T01:26:26.694Z,69.26
2018-08-03T01:28:53.919Z,70.22
2018-08-03T01:31:21.063Z,67.05
2018-08-03T01:33:48.163Z,68.70
2018-08-03T01:36:15.291Z,69.41
2018-08-03T01:38:42.550Z,69.38
2018-08-03T01:41:09.744Z,70.26
2018-08-03T01:43:37.186Z,71.55
2018-08-03T01:46:04.940Z,71.34
2018-08-03T01:48:32.406Z,66.77
2018-08-03T01:50:59.950Z,68.52
2018-08-03T01:53:28.349Z,70.61
2018-08-03T01:55:55.890Z,70.68
2018-08-03T01:58:23.050Z,70.51
2018-08-03T02:00:50.655Z,70.48
2018-08-03T02:03:18.847Z,68.47
2018-08-03T02:05:46.027Z,68.53
2018-08-03T02:08:13.174Z,68.82
2018-08-03T02:10:40.287Z,71.66
2018-08-03T02:13:07.578Z,72.57
2018-08-03T02:15:34.986Z,71.93
2018-08-03T02:18:02.359Z,73.36
2018-08-03T02:20:29.973Z,70.11
2018-08-03T02:22:57.892Z,72.51
2018-08-03T02:25:25.516Z,72.19
2018-08-03T02:27:52.685Z,73.30
2018-08-03T02:30:19.896Z,70.41
2018-08-03T02:32:47.035Z,70.02
2018-08-03T02:35:14.184Z,69.24
2018-08-03T02:37:45.157Z,70.85
2018-08-03T02:40:12.341Z,71.00
2018-08-03T02:42:39.503Z,72.44
2018-08-03T02:45:06.884Z,74.35
2018-08-03T02:47:34.537Z,72.02
2018-08-03T02:50:01.979Z,71.22
2018-08-03T02:52:29.841Z,72.26
2018-08-03T02:54:57.590Z,72.56
2018-08-03T02:57:25.026Z,74.44
2018-08-03T02:59:52.516Z,75.35
2018-08-03T03:02:19.687Z,74.00
2018-08-03T03:04:46.821Z,75.10
2018-08-03T03:07:14.337Z,73.86
2018-08-03T03:09:41.442Z,75.13
2018-08-03T03:12:08.756Z,75.07
2018-08-03T03:14:36.407Z,72.53
2018-08-03T03:17:04.110Z,72.77
2018-08-03T03:19:31.798Z,68.97
2018-08-03T03:22:00.125Z,68.88
2018-08-03T03:24:28.247Z,70.51
2018-08-03T03:26:55.748Z,70.12
2018-08-03T03:29:23.034Z,68.73
2018-08-03T03:31:50.203Z,71.48
2018-08-03T03:34:17.334Z,72.74
2018-08-03T03:36:44.493Z,67.80
2018-08-03T03:39:12.955Z,67.47
2018-08-03T03:41:40.147Z,68.03
2018-08-03T03:44:07.419Z,71.13
2018-08-03T03:46:35.419Z,73.41
2018-08-03T03:49:02.936Z,75.28
2018-08-03T03:51:30.518Z,66.23
2018-08-03T03:53:59.166Z,69.59
2018-08-03T03:56:27.665Z,69.77
2018-08-03T03:58:54.960Z,69.32
2018-08-03T04:01:22.119Z,68.70
2018-08-03T04:03:49.339Z,71.06
2018-08-03T04:06:16.472Z,71.25
2018-08-03T04:08:43.600Z,71.56
2018-08-03T04:11:10.868Z,76.42
2018-08-03T04:13:38.245Z,70.60
2018-08-03T04:16:05.834Z,71.43
2018-08-03T04:18:33.445Z,72.87
2018-08-03T04:21:01.036Z,70.89
2018-08-03T04:23:30.755Z,69.63
2018-08-03T04:25:59.254Z,69.83
2018-08-03T04:28:27.746Z,65.49
2018-08-03T04:30:55.079Z,62.14
2018-08-03T04:33:22.274Z,62.57
2018-08-03T04:35:49.450Z,62.84
2018-08-03T04:38:16.612Z,63.30
2018-08-03T04:40:43.761Z,63.44
2018-08-03T04:43:10.937Z,64.86
2018-08-03T04:45:38.256Z,67.18
2018-08-03T04:48:06.041Z,64.56
2018-08-03T04:50:33.588Z,65.53
2018-08-03T04:53:01.151Z,64.04
2018-08-03T04:55:29.066Z,63.76
2018-08-03T04:57:57.830Z,64.31
2018-08-03T05:00:25.553Z,66.32
2018-08-03T05:02:52.730Z,66.60
2018-08-03T05:05:20.260Z,67.39
2018-08-03T05:07:47.624Z,67.09
2018-08-03T05:10:15.036Z,68.24
2018-08-03T05:12:42.828Z,69.42
2018-08-03T05:15:10.334Z,69.22
2018-08-03T05:17:37.700Z,71.05
2018-08-03T05:20:05.639Z,72.87
2018-08-03T05:22:33.097Z,74.33
2018-08-03T05:25:00.905Z,74.66
2018-08-03T05:27:28.389Z,71.59
2018-08-03T05:29:56.358Z,72.87
2018-08-03T05:32:23.603Z,73.07
2018-08-03T05:34:51.286Z,71.73
2018-08-03T05:37:19.008Z,69.37
2018-08-03T05:39:46.328Z,69.17
2018-08-03T05:42:13.540Z,66.50
2018-08-03T05:44:41.177Z,63.87
2018-08-03T05:47:08.332Z,64.67
2018-08-03T05:49:36.939Z,64.97
2018-08-03T05:52:04.380Z,65.25
2018-08-03T05:54:32.334Z,65.78
2018-08-03T05:57:00.633Z,63.37
2018-08-03T05:59:29.104Z,64.72
2018-08-03T06:01:57.511Z,62.58
2018-08-03T06:04:24.914Z,58.78
2018-08-03T06:06:52.655Z,57.04
2018-08-03T06:09:19.796Z,58.16
2018-08-03T06:11:47.892Z,59.13
2018-08-03T06:14:15.892Z,57.20
2018-08-03T06:16:43.205Z,57.17
2018-08-03T06:19:10.627Z,57.42
2018-08-03T06:21:38.393Z,58.00
2018-08-03T06:24:06.839Z,58.27
2018-08-03T06:26:35.313Z,61.90
2018-08-03T06:29:03.107Z,58.32
2018-08-03T06:31:31.047Z,56.49
2018-08-03T06:33:59.693Z,55.16
2018-08-03T06:36:27.139Z,54.32
2018-08-03T06:38:54.295Z,52.98
2018-08-03T06:41:21.853Z,53.59
2018-08-03T06:43:48.995Z,52.68
2018-08-03T06:46:16.134Z,51.86
2018-08-03T06:48:43.527Z,51.59
2018-08-03T06:51:10.928Z,52.48
2018-08-03T06:53:38.652Z,52.02
2018-08-03T06:56:06.420Z,52.04
2018-08-03T06:58:34.211Z,50.22
2018-08-03T07:01:02.066Z,51.79
2018-08-03T07:03:30.128Z,53.01
2018-08-03T07:05:58.035Z,52.52
2018-08-03T07:08:25.841Z,51.77
2018-08-03T07:10:52.984Z,50.78
2018-08-03T07:13:20.174Z,50.15
2018-08-03T07:15:47.343Z,51.42
2018-08-03T07:18:14.500Z,50.25
2018-08-03T07:20:41.929Z,51.80
2018-08-03T07:23:09.027Z,49.64
2018-08-03T07:25:36.524Z,50.77
2018-08-03T07:28:04.314Z,48.04
2018-08-03T07:30:31.626Z,48.79
2018-08-03T07:32:59.530Z,47.17
2018-08-03T07:35:29.733Z,48.48
2018-08-03T07:37:59.329Z,47.72
2018-08-03T07:40:27.249Z,47.82
2018-08-03T07:42:57.548Z,48.18
2018-08-03T07:45:25.637Z,46.54
2018-08-03T07:47:52.836Z,46.02
2018-08-03T07:50:20.032Z,45.07
2018-08-03T07:52:47.428Z,44.33
2018-08-03T07:55:14.631Z,44.09
2018-08-03T07:57:41.931Z,44.43
2018-08-03T08:00:09.225Z,44.15
2018-08-03T08:02:37.016Z,41.85
2018-08-03T08:05:04.515Z,42.28
2018-08-03T08:07:32.267Z,41.31
2018-08-03T08:10:00.250Z,37.99
2018-08-03T08:12:28.850Z,38.73
2018-08-03T08:14:57.969Z,39.89
2018-08-03T08:17:25.946Z,39.27
2018-08-03T08:19:53.175Z,37.40
2018-08-03T08:22:20.325Z,39.96
2018-08-03T08:24:47.447Z,36.50
2018-08-03T08:27:14.762Z,34.71
2018-08-03T08:29:41.894Z,35.70
2018-08-03T08:32:09.134Z,35.46
2018-08-03T08:34:36.847Z,37.15
2018-08-03T08:37:04.821Z,37.29
2018-08-03T08:39:32.626Z,36.23
2018-08-03T08:42:00.463Z,36.59
2018-08-03T08:44:30.390Z,35.73
2018-08-03T08:46:58.791Z,37.03
2018-08-03T08:49:26.858Z,35.71
2018-08-03T08:51:54.180Z,35.40
2018-08-03T08:54:21.344Z,35.65
2018-08-03T08:56:48.492Z,35.52
2018-08-03T08:59:15.635Z,34.83
2018-08-03T09:01:42.807Z,34.35
2018-08-03T09:04:09.940Z,32.78
2018-08-03T09:06:37.162Z,34.76
2018-08-03T09:09:06.952Z,33.28
2018-08-03T09:11:38.759Z,34.50
2018-08-03T09:14:06.078Z,34.14
2018-08-03T09:16:33.671Z,33.19
2018-08-03T09:19:01.659Z,35.06
2018-08-03T09:21:29.424Z,34.20
2018-08-03T09:23:57.118Z,31.72
2018-08-03T09:26:24.462Z,31.03
2018-08-03T09:28:51.872Z,34.47
2018-08-03T09:31:19.516Z,31.94
2018-08-03T09:33:57.288Z,31.46
2018-08-03T09:36:24.509Z,32.13
2018-08-03T09:38:51.859Z,33.16
2018-08-03T09:41:19.125Z,31.33
2018-08-03T09:43:46.428Z,29.63
2018-08-03T09:46:13.697Z,30.97
2018-08-03T09:48:41.151Z,31.67
2018-08-03T09:51:08.806Z,31.30
2018-08-03T09:53:36.205Z,31.10
2018-08-03T09:56:03.670Z,31.23
2018-08-03T09:58:31.588Z,31.11
2018-08-03T10:01:05.384Z,29.98
2018-08-03T10:03:33.492Z,29.77
2018-08-03T10:06:00.976Z,32.45
2018-08-03T10:08:29.017Z,30.79
2018-08-03T10:10:57.532Z,27.91
2018-08-03T10:13:24.875Z,29.27
2018-08-03T10:15:52.174Z,26.82
2018-08-03T10:18:19.327Z,26.71
2018-08-03T10:20:46.504Z,28.61
2018-08-03T10:23:13.629Z,29.28
2018-08-03T10:25:40.769Z,24.60
2018-08-03T10:28:08.124Z,25.46
2018-08-03T10:30:35.516Z,26.56
2018-08-03T10:33:03.118Z,24.65
2018-08-03T10:35:31.181Z,26.20
2018-08-03T10:38:00.279Z,27.44
2018-08-03T10:40:27.701Z,26.31
2018-08-03T10:42:55.927Z,27.00
2018-08-03T10:45:23.776Z,27.02
2018-08-03T10:47:51.865Z,25.51
2018-08-03T10:50:19.918Z,24.89
2018-08-03T10:52:47.049Z,25.19
2018-08-03T10:55:14.176Z,27.65
2018-08-03T10:57:41.695Z,26.21
2018-08-03T11:00:09.621Z,23.42
2018-08-03T11:02:36.997Z,23.99
2018-08-03T11:05:04.697Z,21.44
2018-08-03T11:07:32.638Z,20.70
2018-08-03T11:10:00.733Z,20.18
2018-08-03T11:12:29.615Z,25.92
2018-08-03T11:14:58.455Z,22.01
2018-08-03T11:17:26.932Z,22.22
2018-08-03T11:19:56.149Z,21.58
2018-08-03T11:22:23.958Z,20.58
2018-08-03T11:24:51.347Z,21.46
2018-08-03T11:27:18.528Z,21.71
2018-08-03T11:29:45.786Z,22.83
2018-08-03T11:32:12.874Z,19.12
2018-08-03T11:34:40.376Z,18.16
2018-08-03T11:37:07.597Z,21.60
2018-08-03T11:39:35.336Z,23.83
2018-08-03T11:42:03.818Z,23.95
2018-08-03T11:44:31.753Z,19.29
2018-08-03T11:46:59.796Z,20.56
2018-08-03T11:49:27.929Z,20.73
2018-08-03T11:51:56.569Z,22.06
2018-08-03T11:54:24.835Z,22.11
2018-08-03T11:56:52.403Z,19.20
2018-08-03T11:59:19.744Z,21.10
2018-08-03T12:01:47.001Z,22.08
2018-08-03T12:04:14.131Z,20.23
2018-08-03T12:06:41.400Z,20.42
2018-08-03T12:09:08.877Z,23.35
2018-08-03T12:11:36.495Z,22.02
2018-08-03T12:14:04.411Z,20.43
2018-08-03T12:16:31.880Z,21.82
2018-08-03T12:18:59.780Z,21.47
2018-08-03T12:21:28.173Z,23.63
2018-08-03T12:23:56.705Z,22.28
2018-08-03T12:26:24.576Z,25.19
2018-08-03T12:28:51.789Z,25.99
2018-08-03T12:31:18.981Z,25.32
2018-08-03T12:33:46.232Z,26.87
2018-08-03T12:36:13.502Z,25.35
2018-08-03T12:38:40.680Z,25.24
2018-08-03T12:41:08.004Z,24.71
2018-08-03T12:43:36.281Z,27.14
2018-08-03T12:46:04.115Z,26.82
2018-08-03T12:48:31.737Z,24.54
2018-08-03T12:50:59.729Z,27.65
2018-08-03T12:53:27.860Z,27.44
2018-08-03T12:55:56.644Z,27.26
2018-08-03T12:58:24.601Z,27.89
2018-08-03T13:00:51.886Z,29.27
2018-08-03T13:03:19.172Z,29.01
2018-08-03T13:05:46.640Z,25.77
2018-08-03T13:08:14.066Z,26.96
2018-08-03T13:10:47.573Z,25.97
2018-08-03T13:13:14.953Z,26.13
2018-08-03T13:15:42.100Z,25.16
2018-08-03T13:18:09.364Z,27.37
2018-08-03T13:20:36.983Z,27.98
2018-08-03T13:23:04.775Z,27.49
2018-08-03T13:25:32.796Z,27.50
2018-08-03T13:28:00.914Z,27.74
2018-08-03T13:30:29.357Z,27.14
2018-08-03T13:32:58.403Z,27.82
2018-08-03T13:35:26.902Z,25.98
2018-08-03T13:37:55.913Z,27.30
2018-08-03T13:40:24.591Z,28.16
2018-08-03T13:42:51.904Z,27.15
2018-08-03T13:45:19.064Z,27.46
2018-08-03T13:47:46.292Z,28.85
2018-08-03T13:50:13.476Z,25.68
2018-08-03T13:52:40.631Z,28.22
2018-08-03T13:55:09.033Z,28.70
2018-08-03T13:57:37.140Z,26.01
2018-08-03T14:00:06.832Z,25.96
2018-08-03T14:02:34.330Z,28.28
2018-08-03T14:05:01.480Z,27.29
2018-08-03T14:07:28.663Z,26.00
2018-08-03T14:09:55.847Z,24.56
2018-08-03T14:12:23.101Z,27.79
2018-08-03T14:14:50.409Z,26.05
2018-08-03T14:17:17.603Z,26.70
2018-08-03T14:19:45.245Z,27.62
2018-08-03T14:22:13.367Z,26.79
2018-08-03T14:24:41.372Z,26.89
2018-08-03T14:27:09.293Z,26.01
2018-08-03T14:29:37.456Z,28.13
2018-08-03T14:32:05.710Z,26.84
2018-08-03T14:34:34.391Z,27.42
2018-08-03T14:37:01.588Z,27.00
2018-08-03T14:39:28.788Z,27.72
2018-08-03T14:41:56.045Z,27.45
2018-08-03T14:44:23.185Z,26.68
2018-08-03T14:46:50.383Z,27.53
2018-08-03T14:49:17.679Z,26.33
2018-08-03T14:51:45.293Z,27.70
2018-08-03T14:54:12.986Z,25.55
2018-08-03T14:56:40.682Z,27.36
2018-08-03T14:59:15.452Z,24.32
2018-08-03T15:01:43.233Z,25.73
2018-08-03T15:04:11.008Z,27.56
2018-08-03T15:06:39.137Z,27.39
2018-08-03T15:09:08.881Z,23.86
2018-08-03T15:11:38.912Z,26.02
2018-08-03T15:14:07.004Z,26.95
2018-08-03T15:16:34.836Z,25.30
2018-08-03T15:19:02.290Z,26.70
2018-08-03T15:21:29.416Z,26.58
2018-08-03T15:23:56.668Z,26.39
2018-08-03T15:26:24.222Z,26.94
2018-08-03T15:28:51.336Z,27.89
2018-08-03T15:31:18.584Z,24.98
2018-08-03T15:33:45.724Z,24.37
2018-08-03T15:36:12.880Z,26.45
2018-08-03T15:38:40.162Z,27.61
2018-08-03T15:41:07.980Z,27.46
2018-08-03T15:43:35.557Z,26.97
2018-08-03T15:46:03.461Z,26.71
2018-08-03T15:48:31.402Z,28.49
2018-08-03T15:50:59.178Z,27.08
2018-08-03T15:53:27.161Z,24.22
2018-08-03T15:55:54.291Z,26.68
2018-08-03T15:58:21.423Z,29.10
2018-08-03T16:00:48.594Z,28.84
2018-08-03T16:03:15.744Z,28.90
2018-08-03T16:05:42.912Z,28.91
2018-08-03T16:08:10.489Z,27.50
2018-08-03T16:10:38.130Z,27.79
2018-08-03T16:13:07.058Z,28.25
2018-08-03T16:15:35.886Z,28.61
2018-08-03T16:18:03.132Z,27.31
2018-08-03T16:20:30.307Z,29.05
2018-08-03T16:22:57.488Z,30.17
2018-08-03T16:25:24.617Z,27.09
2018-08-03T16:27:52.840Z,27.01
2018-08-03T16:30:20.247Z,28.19
2018-08-03T16:32:47.860Z,31.32
2018-08-03T16:35:15.540Z,32.64
2018-08-03T16:37:43.335Z,30.38
2018-08-03T16:40:11.176Z,31.65
2018-08-03T16:42:39.675Z,32.67
2018-08-03T16:45:08.831Z,29.52
2018-08-03T16:47:37.182Z,33.55
2018-08-03T16:50:06.825Z,34.03
2018-08-03T16:52:34.077Z,34.26
2018-08-03T16:55:01.321Z,35.14
2018-08-03T16:57:28.516Z,32.98
2018-08-03T16:59:55.798Z,33.66
2018-08-03T17:02:23.590Z,32.69
2018-08-03T17:04:51.370Z,33.31
2018-08-03T17:07:19.356Z,34.57
2018-08-03T17:09:48.529Z,35.70
2018-08-03T17:12:16.429Z,34.74
2018-08-03T17:14:44.769Z,37.01
2018-08-03T17:17:13.503Z,37.94
2018-08-03T17:19:40.932Z,38.97
2018-08-03T17:22:08.272Z,35.45
2018-08-03T17:24:35.454Z,34.28
2018-08-03T17:27:02.636Z,34.33
2018-08-03T17:29:29.795Z,36.65
2018-08-03T17:31:57.065Z,36.20
2018-08-03T17:34:24.644Z,39.32
2018-08-03T17:36:52.468Z,35.60
2018-08-03T17:39:20.334Z,38.33
2018-08-03T17:41:48.350Z,39.81
2018-08-03T17:44:16.930Z,40.36
2018-08-03T17:46:45.784Z,39.86
2018-08-03T17:49:14.560Z,41.17
2018-08-03T17:51:42.888Z,42.19
2018-08-03T17:54:12.779Z,41.30
2018-08-03T17:56:40.069Z,43.85
2018-08-03T17:59:07.367Z,45.28
2018-08-03T18:01:34.519Z,42.94
2018-08-03T18:04:01.825Z,44.34
2018-08-03T18:06:29.043Z,43.75
2018-08-03T18:08:56.434Z,43.10
2018-08-03T18:11:24.154Z,43.72
2018-08-03T18:13:51.678Z,43.84
2018-08-03T18:16:19.408Z,45.62
2018-08-03T18:18:47.443Z,48.26
2018-08-03T18:21:16.849Z,47.54
2018-08-03T18:23:45.333Z,46.62
2018-08-03T18:26:13.561Z,50.68
2018-08-03T18:28:44.375Z,49.83
2018-08-03T18:31:11.856Z,50.93
2018-08-03T18:33:39.278Z,50.26
2018-08-03T18:36:06.433Z,49.72
2018-08-03T18:38:33.605Z,50.12
2018-08-03T18:41:00.784Z,44.82
2018-08-03T18:43:27.936Z,46.83
2018-08-03T18:45:56.204Z,48.06
2018-08-03T18:48:23.874Z,47.98
2018-08-03T18:50:51.552Z,51.14
2018-08-03T18:53:19.557Z,50.70
2018-08-03T18:55:47.738Z,48.52
2018-08-03T18:58:16.917Z,48.35
2018-08-03T19:00:45.388Z,46.39
2018-08-03T19:03:13.940Z,47.72
2018-08-03T19:05:41.118Z,48.80
2018-08-03T19:08:08.386Z,50.25
2018-08-03T19:10:35.600Z,50.95
2018-08-03T19:13:02.859Z,50.04
2018-08-03T19:15:30.040Z,48.34
2018-08-03T19:17:57.233Z,50.85
2018-08-03T19:20:24.661Z,50.09
2018-08-03T19:22:52.322Z,48.60
2018-08-03T19:25:20.356Z,51.32
2018-08-03T19:27:48.221Z,52.27
2018-08-03T19:30:16.517Z,51.14
2018-08-03T19:32:44.485Z,50.95
2018-08-03T19:35:12.431Z,51.80
2018-08-03T19:37:39.689Z,50.80
2018-08-03T19:40:07.193Z,53.55
2018-08-03T19:42:34.376Z,52.49
2018-08-03T19:45:01.556Z,53.69
2018-08-03T19:47:28.816Z,55.92
2018-08-03T19:49:56.541Z,52.60
2018-08-03T19:52:24.193Z,54.62
2018-08-03T19:54:51.722Z,56.19
2018-08-03T19:57:19.428Z,56.58
2018-08-03T19:59:47.450Z,56.33
2018-08-03T20:02:16.840Z,57.93
2018-08-03T20:04:45.457Z,57.00
2018-08-03T20:07:13.294Z,55.86
2018-08-03T20:09:40.563Z,53.96
2018-08-03T20:12:07.821Z,57.47
2018-08-03T20:14:35.724Z,55.95
2018-08-03T20:17:03.316Z,56.82
2018-08-03T20:19:31.255Z,56.86
2018-08-03T20:21:58.868Z,57.26
2018-08-03T20:24:26.120Z,57.20
2018-08-03T20:26:53.728Z,57.46
2018-08-03T20:29:21.767Z,57.85
2018-08-03T20:31:49.618Z,58.02
2018-08-03T20:34:17.389Z,58.95
2018-08-03T20:36:45.210Z,58.12
2018-08-03T20:39:12.876Z,60.26
2018-08-03T20:41:40.183Z,59.51
2018-08-03T20:44:07.464Z,59.77
2018-08-03T20:46:35.265Z,59.77
2018-08-03T20:49:03.274Z,58.35
2018-08-03T20:51:30.519Z,59.26
2018-08-03T20:53:58.013Z,60.27
2018-08-03T20:56:25.318Z,60.97
2018-08-03T20:58:53.106Z,59.32
2018-08-03T21:01:21.204Z,59.08
2018-08-03T21:03:49.029Z,59.07
2018-08-03T21:06:16.913Z,59.44
2018-08-03T21:08:44.642Z,59.79
2018-08-03T21:11:12.878Z,59.06
2018-08-03T21:13:40.187Z,59.86
2018-08-03T21:16:07.330Z,60.60
2018-08-03T21:18:34.570Z,61.68
2018-08-03T21:21:01.857Z,61.27
2018-08-03T21:23:29.201Z,62.04
2018-08-03T21:25:56.396Z,63.47
2018-08-03T21:28:24.001Z,62.97
2018-08-03T21:30:51.581Z,63.09
2018-08-03T21:33:19.039Z,62.52
2018-08-03T21:35:47.779Z,63.38
2018-08-03T21:38:15.881Z,62.04
2018-08-03T21:40:44.042Z,63.30
2018-08-03T21:43:11.548Z,63.90
2018-08-03T21:45:38.741Z,62.77
2018-08-03T21:48:05.964Z,63.65
2018-08-03T21:50:34.117Z,64.26
2018-08-03T21:53:01.784Z,63.92
2018-08-03T21:55:30.163Z,65.61
2018-08-03T21:57:57.658Z,64.31
2018-08-03T22:00:25.028Z,64.62
2018-08-03T22:02:52.617Z,64.81
2018-08-03T22:05:19.825Z,65.36
2018-08-03T22:07:48.016Z,63.92
2018-08-03T22:10:15.691Z,65.21
2018-08-03T22:12:43.538Z,64.56
2018-08-03T22:15:15.675Z,65.00
2018-08-03T22:17:42.931Z,65.87
2018-08-03T22:20:10.079Z,65.12
2018-08-03T22:22:37.374Z,65.15
2018-08-03T22:25:05.272Z,66.28
2018-08-03T22:27:32.775Z,66.87
2018-08-03T22:30:00.767Z,67.63
2018-08-03T22:32:28.308Z,67.06
2018-08-03T22:34:55.886Z,63.61
2018-08-03T22:37:23.402Z,61.13
2018-08-03T22:39:51.223Z,62.75
2018-08-03T22:42:19.228Z,63.44
2018-08-03T22:44:46.530Z,62.39
2018-08-03T22:47:14.305Z,60.37
2018-08-03T22:49:41.471Z,61.15
2018-08-03T22:52:09.129Z,62.92
2018-08-03T22:54:36.268Z,61.49
2018-08-03T22:57:03.712Z,62.78
2018-08-03T22:59:31.424Z,62.76
2018-08-03T23:01:59.749Z,62.92
2018-08-03T23:04:28.182Z,63.66
2018-08-03T23:06:56.215Z,65.00
2018-08-03T23:09:23.634Z,65.26
2018-08-03T23:11:51.288Z,64.58
2018-08-03T23:14:18.919Z,63.98
2018-08-03T23:16:46.670Z,63.76
2018-08-03T23:19:14.324Z,64.07
2018-08-03T23:21:41.948Z,64.67
2018-08-03T23:24:09.185Z,66.25
2018-08-03T23:26:36.296Z,65.87
2018-08-03T23:29:03.952Z,65.86
2018-08-03T23:31:31.109Z,65.52
2018-08-03T23:34:00.666Z,66.77
2018-08-03T23:36:28.256Z,64.95
2018-08-03T23:38:55.863Z,64.80
2018-08-03T23:41:23.347Z,65.77
2018-08-03T23:43:51.250Z,64.62
2018-08-03T23:46:19.104Z,64.90
2018-08-03T23:48:49.005Z,65.21
2018-08-03T23:51:17.898Z,64.26
2018-08-03T23:53:45.946Z,65.58
2018-08-03T23:56:14.072Z,65.78
2018-08-03T23:58:43.620Z,64.08
